createdAt,value
2023-04-01T00:00:30.451Z,10.85
2023-04-01T00:01:32.765Z,10.94
2023-04-01T00:02:34.746Z,11.04
2023-04-01T00:03:37.208Z,10.92
2023-04-01T00:04:39.500Z,10.83
2023-04-01T00:05:41.554Z,10.89
2023-04-01T00:06:43.914Z,10.83
2023-04-01T00:07:46.763Z,10.87
2023-04-01T00:08:48.898Z,10.91
2023-04-01T00:09:50.738Z,10.80
2023-04-01T00:10:52.798Z,10.69
2023-04-01T00:11:54.986Z,10.50
2023-04-01T00:12:56.876Z,10.54
2023-04-01T00:13:58.792Z,10.46
2023-04-01T00:15:00.687Z,10.60
2023-04-01T00:16:06.618Z,10.74
2023-04-01T00:17:16.126Z,10.70
2023-04-01T00:18:18.066Z,10.67
2023-04-01T00:19:19.906Z,10.65
2023-04-01T00:20:22.727Z,10.49
2023-04-01T00:21:24.737Z,10.40
2023-04-01T00:22:27.907Z,10.48
2023-04-01T00:23:29.851Z,10.47
2023-04-01T00:24:31.677Z,10.55
2023-04-01T00:25:33.772Z,10.64
2023-04-01T00:26:37.553Z,10.52
2023-04-01T00:27:39.794Z,10.50
2023-04-01T00:28:41.802Z,10.36
2023-04-01T00:29:45.144Z,10.43
2023-04-01T00:30:47.232Z,10.40
2023-04-01T00:31:50.263Z,10.44
2023-04-01T00:32:54.135Z,10.49
2023-04-01T00:33:56.137Z,10.61
2023-04-01T00:35:00.466Z,10.62
2023-04-01T00:36:17.604Z,10.63
2023-04-01T00:37:22.035Z,10.68
2023-04-01T00:38:24.252Z,10.56
2023-04-01T00:39:26.122Z,10.70
2023-04-01T00:40:34.060Z,10.72
2023-04-01T00:41:36.466Z,10.61
2023-04-01T00:42:38.398Z,10.54
2023-04-01T00:43:41.360Z,10.55
2023-04-01T00:44:43.566Z,10.54
2023-04-01T00:45:47.157Z,10.52
2023-04-01T00:46:49.136Z,10.57
2023-04-01T00:47:51.307Z,10.60
2023-04-01T00:48:56.238Z,10.60
2023-04-01T00:49:58.217Z,10.62
2023-04-01T00:51:41.365Z,10.52
2023-04-01T00:52:43.526Z,10.57
2023-04-01T00:53:49.381Z,10.45
2023-04-01T00:54:57.166Z,10.37
2023-04-01T00:56:39.232Z,10.37
2023-04-01T00:57:43.409Z,10.46
2023-04-01T00:58:49.570Z,10.53
2023-04-01T00:59:54.743Z,10.57
2023-04-01T01:01:00.275Z,10.49
2023-04-01T01:02:04.546Z,10.51
2023-04-01T01:03:06.610Z,10.49
2023-04-01T01:04:08.582Z,10.32
2023-04-01T01:05:14.698Z,10.26
2023-04-01T01:06:22.972Z,10.24
2023-04-01T01:07:32.844Z,9.97
2023-04-01T01:09:01.321Z,10.14
2023-04-01T01:10:03.827Z,10.17
2023-04-01T01:11:09.557Z,9.99
2023-04-01T01:12:14.203Z,10.03
2023-04-01T01:13:22.507Z,10.06
2023-04-01T01:14:37.222Z,9.98
2023-04-01T01:15:48.318Z,9.99
2023-04-01T01:17:01.077Z,10.15
2023-04-01T01:18:10.513Z,10.12
2023-04-01T01:19:49.064Z,10.12
2023-04-01T01:21:21.103Z,10.09
2023-04-01T01:22:48.073Z,10.17
2023-04-01T01:23:58.863Z,9.98
2023-04-01T01:25:33.201Z,10.02
2023-04-01T01:26:38.241Z,10.03
2023-04-01T01:27:43.718Z,9.99
2023-04-01T01:29:11.457Z,10.06
2023-04-01T01:30:31.525Z,10.13
2023-04-01T01:31:39.222Z,10.09
2023-04-01T01:32:44.204Z,10.08
2023-04-01T01:33:54.941Z,10.19
2023-04-01T01:35:11.909Z,10.00
2023-04-01T01:36:16.696Z,10.11
2023-04-01T01:37:22.112Z,10.03
2023-04-01T01:38:30.355Z,10.10
2023-04-01T01:39:37.034Z,10.22
2023-04-01T01:40:42.214Z,10.13
2023-04-01T01:41:50.361Z,9.95
2023-04-01T01:42:57.794Z,10.03
2023-04-01T01:44:02.727Z,10.13
2023-04-01T01:45:07.548Z,10.02
2023-04-01T01:46:18.361Z,10.11
2023-04-01T01:47:22.009Z,10.02
2023-04-01T01:48:27.606Z,9.91
2023-04-01T01:49:33.196Z,10.03
2023-04-01T01:50:36.372Z,10.12
2023-04-01T01:51:40.109Z,10.16
2023-04-01T01:52:42.956Z,10.06
2023-04-01T01:53:45.750Z,10.00
2023-04-01T01:54:49.732Z,9.96
2023-04-01T01:55:52.998Z,10.03
2023-04-01T01:57:06.485Z,9.96
2023-04-01T01:58:23.328Z,9.97
2023-04-01T01:59:28.382Z,9.91
2023-04-01T02:00:31.174Z,9.91
2023-04-01T02:01:39.354Z,9.84
2023-04-01T02:02:45.112Z,9.86
2023-04-01T02:03:49.123Z,9.74
2023-04-01T02:04:52.612Z,9.79
2023-04-01T02:05:58.852Z,9.91
2023-04-01T02:07:06.150Z,9.88
2023-04-01T02:08:17.977Z,10.00
2023-04-01T02:09:19.902Z,10.01
2023-04-01T02:10:26.120Z,10.07
2023-04-01T02:12:00.320Z,10.13
2023-04-01T02:13:12.838Z,10.02
2023-04-01T02:14:18.350Z,10.05
2023-04-01T02:15:22.590Z,10.17
2023-04-01T02:16:33.146Z,10.24
2023-04-01T02:17:39.212Z,10.31
2023-04-01T02:18:45.277Z,10.37
2023-04-01T02:19:55.678Z,10.28
2023-04-01T02:21:01.138Z,10.36
2023-04-01T02:22:06.425Z,10.24
2023-04-01T02:23:11.130Z,10.17
2023-04-01T02:24:16.445Z,10.23
2023-04-01T02:25:35.864Z,10.11
2023-04-01T02:26:38.239Z,10.00
2023-04-01T02:27:44.092Z,10.12
2023-04-01T02:28:47.646Z,10.19
2023-04-01T02:29:50.726Z,10.17
2023-04-01T02:30:53.277Z,10.28
2023-04-01T02:31:56.013Z,10.12
2023-04-01T02:32:59.927Z,10.03
2023-04-01T02:34:03.757Z,10.10
2023-04-01T02:35:12.218Z,10.23
2023-04-01T02:36:16.929Z,10.20
2023-04-01T02:37:19.217Z,10.15
2023-04-01T02:38:21.159Z,10.21
2023-04-01T02:39:23.626Z,10.10
2023-04-01T02:40:25.502Z,10.02
2023-04-01T02:41:27.757Z,9.93
2023-04-01T02:42:29.755Z,9.85
2023-04-01T02:43:31.626Z,9.86
2023-04-01T02:44:33.564Z,10.06
2023-04-01T02:45:35.754Z,9.98
2023-04-01T02:46:38.896Z,9.92
2023-04-01T02:47:41.261Z,9.99
2023-04-01T02:48:43.417Z,10.06
2023-04-01T02:49:45.384Z,10.10
2023-04-01T02:50:47.617Z,10.13
2023-04-01T02:51:49.956Z,9.92
2023-04-01T02:52:51.823Z,9.96
2023-04-01T02:53:53.693Z,9.94
2023-04-01T02:54:56.122Z,9.93
2023-04-01T02:55:58.018Z,9.93
2023-04-01T02:57:00.304Z,9.99
2023-04-01T02:58:02.468Z,10.02
2023-04-01T02:59:04.733Z,10.03
2023-04-01T03:00:12.073Z,10.03
2023-04-01T03:01:14.606Z,10.05
2023-04-01T03:02:17.902Z,10.06
2023-04-01T03:03:19.814Z,10.03
2023-04-01T03:04:21.810Z,9.91
2023-04-01T03:05:24.790Z,9.82
2023-04-01T03:06:26.666Z,9.91
2023-04-01T03:07:29.471Z,10.02
2023-04-01T03:08:31.415Z,10.05
2023-04-01T03:09:33.498Z,9.99
2023-04-01T03:10:35.793Z,9.93
2023-04-01T03:11:39.064Z,9.92
2023-04-01T03:12:41.441Z,9.86
2023-04-01T03:13:43.322Z,9.99
2023-04-01T03:14:45.767Z,10.19
2023-04-01T03:15:49.129Z,10.13
2023-04-01T03:16:51.233Z,10.17
2023-04-01T03:17:53.522Z,10.05
2023-04-01T03:18:57.808Z,9.89
2023-04-01T03:19:59.865Z,9.97
2023-04-01T03:21:20.424Z,9.83
2023-04-01T03:22:22.316Z,9.66
2023-04-01T03:23:25.367Z,9.59
2023-04-01T03:24:27.325Z,9.58
2023-04-01T03:25:31.801Z,9.52
2023-04-01T03:26:34.222Z,9.59
2023-04-01T03:27:36.800Z,9.69
2023-04-01T03:28:39.034Z,9.64
2023-04-01T03:29:41.198Z,9.75
2023-04-01T03:30:43.629Z,9.78
2023-04-01T03:31:46.230Z,9.62
2023-04-01T03:32:48.284Z,9.54
2023-04-01T03:33:50.727Z,9.52
2023-04-01T03:34:52.606Z,9.48
2023-04-01T03:35:54.554Z,9.59
2023-04-01T03:36:56.534Z,9.62
2023-04-01T03:37:58.453Z,9.52
2023-04-01T03:39:00.676Z,9.49
2023-04-01T03:40:05.571Z,9.48
2023-04-01T03:41:08.173Z,9.37
2023-04-01T03:42:10.106Z,9.54
2023-04-01T03:43:12.325Z,9.66
2023-04-01T03:44:14.628Z,9.70
2023-04-01T03:45:17.254Z,9.64
2023-04-01T03:46:21.304Z,9.62
2023-04-01T03:47:23.534Z,9.53
2023-04-01T03:48:26.500Z,9.41
2023-04-01T03:49:29.843Z,9.26
2023-04-01T03:50:32.265Z,9.36
2023-04-01T03:51:34.397Z,9.38
2023-04-01T03:52:36.588Z,9.39
2023-04-01T03:53:38.625Z,9.28
2023-04-01T03:54:40.914Z,9.44
2023-04-01T03:55:43.277Z,9.46
2023-04-01T03:56:45.422Z,9.36
2023-04-01T03:57:47.402Z,9.46
2023-04-01T03:58:50.097Z,9.40
2023-04-01T03:59:52.374Z,9.44
2023-04-01T04:00:54.319Z,9.43
2023-04-01T04:01:56.678Z,9.53
2023-04-01T04:02:59.039Z,9.61
2023-04-01T04:04:02.177Z,9.49
2023-04-01T04:05:04.353Z,9.35
2023-04-01T04:06:06.459Z,9.24
2023-04-01T04:07:08.760Z,9.29
2023-04-01T04:08:12.420Z,9.36
2023-04-01T04:09:14.640Z,9.45
2023-04-01T04:10:16.874Z,9.59
2023-04-01T04:11:21.027Z,9.49
2023-04-01T04:12:24.093Z,9.45
2023-04-01T04:13:26.649Z,9.49
2023-04-01T04:14:29.945Z,9.54
2023-04-01T04:15:32.241Z,9.58
2023-04-01T04:16:37.686Z,9.55
2023-04-01T04:17:40.629Z,9.57
2023-04-01T04:18:42.569Z,9.58
2023-04-01T04:19:44.978Z,9.46
2023-04-01T04:20:51.198Z,9.43
2023-04-01T04:21:53.393Z,9.50
2023-04-01T04:22:55.862Z,9.67
2023-04-01T04:24:00.122Z,9.66
2023-04-01T04:25:02.606Z,9.57
2023-04-01T04:26:10.334Z,9.55
2023-04-01T04:27:12.304Z,9.43
2023-04-01T04:28:20.646Z,9.38
2023-04-01T04:29:23.832Z,9.25
2023-04-01T04:30:26.252Z,9.20
2023-04-01T04:31:28.775Z,9.43
2023-04-01T04:32:31.458Z,9.50
2023-04-01T04:33:34.928Z,9.35
2023-04-01T04:34:36.817Z,9.35
2023-04-01T04:35:38.774Z,9.37
2023-04-01T04:36:40.959Z,9.46
2023-04-01T04:37:43.178Z,9.54
2023-04-01T04:38:46.307Z,9.45
2023-04-01T04:39:48.149Z,9.29
2023-04-01T04:40:50.382Z,9.31
2023-04-01T04:41:52.354Z,9.34
2023-04-01T04:42:54.559Z,9.24
2023-04-01T04:43:58.006Z,9.31
2023-04-01T04:44:59.978Z,9.35
2023-04-01T04:46:09.314Z,9.37
2023-04-01T04:47:11.778Z,9.49
2023-04-01T04:48:19.571Z,9.53
2023-04-01T04:49:22.119Z,9.48
2023-04-01T04:50:25.026Z,9.46
2023-04-01T04:51:27.244Z,9.40
2023-04-01T04:52:29.163Z,9.37
2023-04-01T04:53:31.167Z,9.32
2023-04-01T04:54:33.396Z,9.42
2023-04-01T04:55:35.671Z,9.39
2023-04-01T04:56:40.473Z,9.20
2023-04-01T04:57:42.741Z,9.21
2023-04-01T04:58:44.569Z,9.42
2023-04-01T04:59:50.560Z,9.47
2023-04-01T05:00:53.066Z,9.32
2023-04-01T05:01:55.525Z,9.27
2023-04-01T05:02:57.450Z,9.16
2023-04-01T05:03:59.414Z,9.11
2023-04-01T05:05:01.951Z,9.29
2023-04-01T05:06:04.070Z,9.26
2023-04-01T05:07:06.097Z,9.22
2023-04-01T05:08:08.107Z,9.12
2023-04-01T05:09:10.096Z,9.25
2023-04-01T05:10:13.130Z,9.39
2023-04-01T05:11:17.823Z,9.42
2023-04-01T05:12:19.813Z,9.33
2023-04-01T05:13:23.720Z,9.28
2023-04-01T05:14:26.043Z,9.31
2023-04-01T05:15:28.669Z,9.32
2023-04-01T05:16:32.450Z,9.37
2023-04-01T05:17:34.743Z,9.40
2023-04-01T05:18:38.521Z,9.48
2023-04-01T05:19:41.407Z,9.56
2023-04-01T05:20:53.284Z,9.52
2023-04-01T05:21:55.213Z,9.40
2023-04-01T05:22:58.298Z,9.49
2023-04-01T05:24:00.283Z,9.64
2023-04-01T05:25:02.793Z,9.60
2023-04-01T05:26:06.553Z,9.46
2023-04-01T05:27:08.462Z,9.42
2023-04-01T05:28:10.798Z,9.50
2023-04-01T05:29:12.731Z,9.34
2023-04-01T05:30:16.091Z,9.49
2023-04-01T05:31:18.563Z,9.61
2023-04-01T05:32:20.869Z,9.66
2023-04-01T05:33:22.788Z,9.79
2023-04-01T05:34:24.669Z,9.87
2023-04-01T05:35:27.059Z,9.88
2023-04-01T05:36:29.337Z,9.93
2023-04-01T05:37:31.850Z,9.73
2023-04-01T05:38:34.055Z,9.85
2023-04-01T05:39:40.196Z,9.92
2023-04-01T05:40:43.109Z,9.84
2023-04-01T05:41:46.041Z,9.85
2023-04-01T05:42:47.980Z,9.80
2023-04-01T05:43:50.905Z,9.88
2023-04-01T05:44:56.622Z,9.77
2023-04-01T05:46:06.085Z,9.64
2023-04-01T05:47:09.658Z,9.80
2023-04-01T05:48:11.693Z,9.72
2023-04-01T05:49:14.081Z,9.67
2023-04-01T05:50:16.311Z,9.78
2023-04-01T05:51:18.268Z,9.72
2023-04-01T05:52:20.547Z,9.70
2023-04-01T05:53:23.227Z,9.86
2023-04-01T05:54:25.293Z,9.86
2023-04-01T05:55:27.301Z,10.12
2023-04-01T05:56:29.232Z,10.27
2023-04-01T05:57:32.479Z,10.39
2023-04-01T05:58:34.499Z,10.55
2023-04-01T05:59:36.510Z,10.71
2023-04-01T06:00:39.233Z,10.77
2023-04-01T06:01:41.892Z,11.02
2023-04-01T06:02:44.184Z,11.04
2023-04-01T06:03:46.413Z,11.13
2023-04-01T06:04:48.867Z,11.12
2023-04-01T06:05:50.949Z,11.00
2023-04-01T06:06:53.197Z,11.12
2023-04-01T06:08:10.561Z,11.18
2023-04-01T06:09:28.497Z,11.34
2023-04-01T06:10:48.735Z,11.44
2023-04-01T06:12:05.558Z,11.60
2023-04-01T06:13:24.802Z,11.70
2023-04-01T06:15:01.059Z,11.78
2023-04-01T06:16:13.468Z,11.89
2023-04-01T06:17:52.667Z,11.82
2023-04-01T06:19:38.311Z,12.00
2023-04-01T06:20:48.765Z,12.17
2023-04-01T06:21:53.659Z,12.40
2023-04-01T06:23:01.772Z,12.44
2023-04-01T06:24:35.794Z,12.49
2023-04-01T06:25:49.860Z,12.45
2023-04-01T06:27:28.190Z,12.49
2023-04-01T06:29:20.459Z,12.29
2023-04-01T06:30:29.064Z,12.39
2023-04-01T06:31:51.751Z,12.54
2023-04-01T06:33:00.445Z,12.55
2023-04-01T06:34:19.770Z,12.62
2023-04-01T06:35:55.969Z,12.50
2023-04-01T06:37:11.157Z,12.76
2023-04-01T06:38:12.975Z,12.71
2023-04-01T06:39:23.758Z,12.88
2023-04-01T06:40:56.618Z,12.86
2023-04-01T06:42:25.654Z,12.93
2023-04-01T06:43:45.825Z,12.97
2023-04-01T06:45:26.397Z,13.13
2023-04-01T06:46:53.288Z,13.13
2023-04-01T06:48:28.681Z,13.37
2023-04-01T06:50:05.058Z,13.42
2023-04-01T06:51:48.048Z,13.39
2023-04-01T06:53:26.652Z,13.55
2023-04-01T06:54:52.962Z,13.59
2023-04-01T06:56:19.341Z,13.44
2023-04-01T06:57:40.821Z,13.57
2023-04-01T06:58:51.439Z,13.87
2023-04-01T06:59:58.143Z,13.89
2023-04-01T07:01:04.897Z,13.78
2023-04-01T07:02:25.921Z,13.92
2023-04-01T07:03:34.074Z,14.14
2023-04-01T07:04:44.671Z,14.23
2023-04-01T07:05:47.569Z,14.32
2023-04-01T07:07:02.714Z,14.24
2023-04-01T07:08:11.436Z,14.27
2023-04-01T07:09:19.748Z,14.50
2023-04-01T07:10:48.538Z,14.44
2023-04-01T07:12:16.372Z,14.67
2023-04-01T07:13:48.597Z,14.61
2023-04-01T07:14:54.181Z,14.75
2023-04-01T07:16:08.263Z,15.27
2023-04-01T07:17:40.498Z,15.08
2023-04-01T07:18:48.492Z,15.12
2023-04-01T07:20:03.037Z,15.07
2023-04-01T07:21:11.289Z,14.69
2023-04-01T07:22:37.736Z,14.82
2023-04-01T07:23:45.731Z,14.77
2023-04-01T07:24:49.507Z,14.87
2023-04-01T07:26:07.940Z,15.05
2023-04-01T07:27:14.840Z,15.25
2023-04-01T07:28:18.024Z,16.00
2023-04-01T07:29:21.206Z,16.39
2023-04-01T07:30:25.525Z,16.41
2023-04-01T07:32:06.684Z,16.67
2023-04-01T07:33:20.833Z,16.76
2023-04-01T07:34:29.562Z,16.63
2023-04-01T07:35:43.311Z,16.81
2023-04-01T07:36:54.508Z,16.74
2023-04-01T07:38:16.887Z,16.73
2023-04-01T07:39:29.841Z,16.91
2023-04-01T07:40:36.107Z,16.83
2023-04-01T07:41:44.672Z,17.19
2023-04-01T07:42:56.020Z,17.13
2023-04-01T07:44:03.854Z,17.49
2023-04-01T07:45:25.611Z,17.51
2023-04-01T07:46:52.554Z,17.19
2023-04-01T07:48:32.773Z,16.88
2023-04-01T07:49:57.198Z,17.59
2023-04-01T07:51:14.115Z,17.83
2023-04-01T07:52:31.097Z,17.87
2023-04-01T07:54:00.118Z,17.74
2023-04-01T07:55:07.737Z,17.70
2023-04-01T07:56:15.625Z,17.46
2023-04-01T07:57:42.448Z,17.67
2023-04-01T07:59:11.556Z,17.73
2023-04-01T08:00:59.107Z,18.08
2023-04-01T08:02:02.587Z,18.25
2023-04-01T08:03:21.227Z,18.34
2023-04-01T08:04:38.584Z,18.18
2023-04-01T08:05:59.534Z,17.78
2023-04-01T08:07:27.418Z,17.33
2023-04-01T08:08:34.215Z,16.99
2023-04-01T08:09:57.680Z,16.54
2023-04-01T08:11:31.119Z,16.27
2023-04-01T08:13:09.766Z,16.04
2023-04-01T08:14:44.503Z,16.05
2023-04-01T08:16:09.459Z,16.16
2023-04-01T08:17:54.148Z,15.82
2023-04-01T08:19:27.255Z,15.45
2023-04-01T08:20:38.571Z,15.06
2023-04-01T08:21:46.968Z,15.39
2023-04-01T08:22:52.698Z,15.55
2023-04-01T08:24:05.491Z,15.53
2023-04-01T08:25:17.196Z,15.61
2023-04-01T08:26:38.297Z,15.29
2023-04-01T08:27:47.943Z,15.06
2023-04-01T08:29:00.553Z,14.76
2023-04-01T08:30:24.260Z,14.90
2023-04-01T08:31:49.587Z,14.74
2023-04-01T08:33:00.945Z,14.76
2023-04-01T08:34:09.342Z,14.73
2023-04-01T08:35:28.878Z,14.56
2023-04-01T08:36:39.076Z,14.45
2023-04-01T08:37:46.448Z,14.33
2023-04-01T08:38:50.415Z,14.26
2023-04-01T08:40:40.763Z,14.24
2023-04-01T08:41:57.306Z,14.21
2023-04-01T08:43:14.067Z,14.01
2023-04-01T08:44:35.558Z,13.70
2023-04-01T08:46:12.161Z,13.81
2023-04-01T08:47:31.385Z,13.99
2023-04-01T08:49:00.099Z,14.16
2023-04-01T08:50:27.627Z,14.11
2023-04-01T08:51:39.550Z,14.05
2023-04-01T08:52:59.686Z,14.00
2023-04-01T08:54:35.897Z,14.17
2023-04-01T08:56:08.381Z,14.38
2023-04-01T08:57:27.455Z,14.15
2023-04-01T08:58:55.537Z,13.95
2023-04-01T09:00:10.041Z,14.06
2023-04-01T09:01:22.214Z,14.25
2023-04-01T09:03:10.207Z,14.18
2023-04-01T09:04:35.601Z,14.23
2023-04-01T09:05:40.336Z,14.16
2023-04-01T09:07:01.873Z,14.09
2023-04-01T09:08:21.829Z,14.00
2023-04-01T09:10:12.210Z,13.95
2023-04-01T09:11:56.392Z,14.11
2023-04-01T09:13:30.429Z,14.12
2023-04-01T09:14:59.631Z,14.22
2023-04-01T09:16:45.529Z,14.47
2023-04-01T09:17:56.599Z,14.61
2023-04-01T09:19:40.398Z,14.79
2023-04-01T09:20:54.642Z,14.99
2023-04-01T09:22:12.937Z,15.29
2023-04-01T09:23:14.975Z,15.38
2023-04-01T09:24:54.295Z,15.08
2023-04-01T09:26:24.204Z,15.14
2023-04-01T09:27:44.744Z,15.29
2023-04-01T09:28:55.973Z,15.50
2023-04-01T09:30:22.704Z,15.49
2023-04-01T09:31:49.784Z,15.39
2023-04-01T09:32:56.311Z,15.28
2023-04-01T09:34:09.135Z,15.05
2023-04-01T09:36:03.652Z,15.12
2023-04-01T09:37:24.990Z,14.99
2023-04-01T09:39:00.510Z,14.84
2023-04-01T09:40:02.804Z,15.02
2023-04-01T09:41:08.237Z,15.30
2023-04-01T09:42:50.284Z,15.63
2023-04-01T09:44:04.862Z,15.70
2023-04-01T09:45:47.338Z,15.43
2023-04-01T09:47:16.986Z,15.50
2023-04-01T09:48:48.913Z,15.52
2023-04-01T09:49:51.336Z,15.63
2023-04-01T09:51:11.737Z,15.70
2023-04-01T09:52:21.913Z,15.34
2023-04-01T09:53:49.221Z,15.49
2023-04-01T09:55:13.130Z,15.48
2023-04-01T09:56:24.813Z,15.91
2023-04-01T09:57:51.462Z,16.01
2023-04-01T09:59:16.959Z,15.81
2023-04-01T10:00:52.720Z,15.89
2023-04-01T10:02:32.043Z,15.95
2023-04-01T10:04:03.241Z,15.57
2023-04-01T10:05:37.311Z,15.50
2023-04-01T10:07:15.984Z,15.65
2023-04-01T10:08:27.227Z,15.57
2023-04-01T10:09:38.181Z,15.69
2023-04-01T10:11:13.900Z,15.82
2023-04-01T10:12:21.073Z,15.65
2023-04-01T10:13:35.242Z,15.62
2023-04-01T10:15:08.734Z,15.63
2023-04-01T10:16:25.603Z,15.34
2023-04-01T10:17:55.686Z,15.14
2023-04-01T10:19:20.345Z,15.22
2023-04-01T10:20:50.386Z,15.42
2023-04-01T10:22:30.283Z,15.67
2023-04-01T10:23:56.853Z,15.69
2023-04-01T10:25:17.707Z,15.84
2023-04-01T10:26:32.232Z,15.44
2023-04-01T10:27:47.504Z,15.25
2023-04-01T10:28:56.618Z,15.00
2023-04-01T10:30:26.320Z,15.00
2023-04-01T10:32:08.330Z,14.98
2023-04-01T10:33:22.436Z,14.95
2023-04-01T10:34:46.485Z,15.07
2023-04-01T10:36:10.775Z,15.02
2023-04-01T10:37:39.115Z,15.18
2023-04-01T10:39:03.942Z,15.16
2023-04-01T10:40:44.556Z,15.10
2023-04-01T10:42:07.311Z,15.08
2023-04-01T10:43:38.881Z,15.07
2023-04-01T10:45:06.109Z,15.13
2023-04-01T10:46:36.858Z,15.06
2023-04-01T10:48:18.350Z,15.04
2023-04-01T10:49:47.694Z,14.86
2023-04-01T10:51:31.034Z,14.76
2023-04-01T10:53:02.683Z,14.53
2023-04-01T10:54:31.193Z,14.52
2023-04-01T10:56:04.913Z,14.39
2023-04-01T10:57:33.780Z,14.57
2023-04-01T10:58:53.542Z,14.43
2023-04-01T11:00:31.088Z,14.25
2023-04-01T11:02:11.959Z,14.27
2023-04-01T11:04:05.350Z,14.28
2023-04-01T11:05:28.841Z,14.55
2023-04-01T11:06:51.908Z,14.61
2023-04-01T11:08:21.311Z,14.74
2023-04-01T11:10:22.939Z,14.46
2023-04-01T11:11:56.966Z,14.67
2023-04-01T11:13:23.379Z,14.70
2023-04-01T11:14:47.295Z,14.83
2023-04-01T11:16:09.384Z,14.61
2023-04-01T11:17:39.577Z,14.58
2023-04-01T11:19:16.993Z,14.60
2023-04-01T11:20:58.184Z,14.60
2023-04-01T11:22:10.881Z,14.43
2023-04-01T11:23:51.975Z,14.72
2023-04-01T11:25:38.428Z,14.83
2023-04-01T11:26:53.860Z,14.86
2023-04-01T11:28:19.180Z,15.15
2023-04-01T11:29:59.281Z,15.13
2023-04-01T11:31:05.674Z,15.38
2023-04-01T11:32:52.775Z,15.49
2023-04-01T11:33:58.770Z,15.78
2023-04-01T11:35:21.132Z,15.99
2023-04-01T11:36:41.875Z,16.17
2023-04-01T11:38:08.523Z,16.13
2023-04-01T11:39:38.101Z,16.01
2023-04-01T11:40:55.390Z,16.09
2023-04-01T11:42:36.991Z,16.10
2023-04-01T11:44:19.485Z,16.10
2023-04-01T11:45:31.499Z,15.58
2023-04-01T11:47:10.821Z,15.44
2023-04-01T11:48:33.917Z,15.50
2023-04-01T11:49:57.367Z,15.42
2023-04-01T11:51:21.744Z,15.37
2023-04-01T11:52:48.529Z,15.22
2023-04-01T11:54:28.148Z,15.15
2023-04-01T11:55:36.868Z,15.12
2023-04-01T11:56:53.928Z,14.97
2023-04-01T11:58:08.135Z,15.06
2023-04-01T11:59:51.383Z,14.77
2023-04-01T12:01:07.898Z,14.54
2023-04-01T12:02:21.035Z,14.73
2023-04-01T12:03:44.413Z,14.75
2023-04-01T12:05:03.600Z,14.54
2023-04-01T12:06:36.379Z,14.64
2023-04-01T12:07:55.472Z,14.67
2023-04-01T12:09:34.600Z,14.93
2023-04-01T12:11:02.787Z,14.99
2023-04-01T12:12:19.546Z,15.30
2023-04-01T12:13:42.135Z,15.40
2023-04-01T12:14:55.533Z,15.62
2023-04-01T12:16:27.741Z,15.65
2023-04-01T12:17:49.809Z,15.85
2023-04-01T12:19:15.884Z,15.78
2023-04-01T12:20:54.878Z,16.09
2023-04-01T12:22:06.225Z,16.31
2023-04-01T12:23:23.201Z,15.98
2023-04-01T12:24:43.586Z,16.16
2023-04-01T12:26:16.285Z,16.30
2023-04-01T12:27:29.134Z,16.25
2023-04-01T12:28:49.013Z,16.23
2023-04-01T12:30:41.220Z,16.39
2023-04-01T12:31:54.909Z,16.34
2023-04-01T12:33:17.524Z,16.62
2023-04-01T12:34:22.196Z,16.80
2023-04-01T12:36:02.007Z,16.98
2023-04-01T12:37:28.938Z,17.06
2023-04-01T12:38:49.517Z,16.76
2023-04-01T12:40:25.127Z,16.84
2023-04-01T12:42:06.447Z,16.63
2023-04-01T12:43:26.446Z,16.85
2023-04-01T12:45:19.127Z,17.29
2023-04-01T12:46:27.357Z,17.36
2023-04-01T12:48:01.836Z,17.47
2023-04-01T12:49:40.605Z,17.36
2023-04-01T12:51:04.134Z,16.93
2023-04-01T12:52:14.420Z,17.05
2023-04-01T12:53:53.156Z,16.92
2023-04-01T12:55:13.785Z,16.99
2023-04-01T12:56:32.927Z,17.12
2023-04-01T12:57:46.762Z,17.37
2023-04-01T12:59:01.101Z,17.08
2023-04-01T13:00:24.435Z,17.13
2023-04-01T13:01:59.326Z,17.23
2023-04-01T13:03:26.213Z,17.00
2023-04-01T13:04:41.016Z,17.18
2023-04-01T13:05:45.686Z,17.27
2023-04-01T13:07:23.020Z,17.37
2023-04-01T13:09:17.864Z,17.28
2023-04-01T13:10:54.384Z,16.95
2023-04-01T13:12:08.413Z,17.39
2023-04-01T13:13:30.589Z,17.42
2023-04-01T13:14:53.439Z,17.70
2023-04-01T13:16:37.330Z,17.57
2023-04-01T13:17:59.803Z,17.50
2023-04-01T13:19:21.540Z,17.55
2023-04-01T13:20:26.399Z,17.78
2023-04-01T13:22:09.938Z,17.87
2023-04-01T13:23:40.513Z,17.78
2023-04-01T13:24:52.141Z,17.39
2023-04-01T13:26:14.197Z,17.26
2023-04-01T13:27:31.732Z,17.51
2023-04-01T13:29:00.278Z,17.66
2023-04-01T13:30:31.751Z,17.71
2023-04-01T13:31:58.740Z,17.91
2023-04-01T13:33:14.645Z,18.03
2023-04-01T13:35:04.448Z,17.94
2023-04-01T13:36:19.059Z,17.97
2023-04-01T13:37:21.120Z,18.08
2023-04-01T13:38:41.982Z,17.80
2023-04-01T13:40:06.220Z,17.77
2023-04-01T13:41:19.828Z,17.86
2023-04-01T13:42:29.424Z,17.94
2023-04-01T13:43:40.605Z,17.83
2023-04-01T13:45:03.754Z,17.97
2023-04-01T13:46:27.338Z,17.59
2023-04-01T13:47:38.120Z,17.22
2023-04-01T13:48:52.212Z,17.18
2023-04-01T13:50:12.220Z,17.09
2023-04-01T13:51:14.027Z,17.12
2023-04-01T13:52:32.970Z,17.05
2023-04-01T13:53:34.888Z,17.16
2023-04-01T13:54:46.329Z,16.95
2023-04-01T13:55:54.204Z,16.64
2023-04-01T13:57:20.327Z,16.73
2023-04-01T13:58:39.497Z,16.92
2023-04-01T14:00:17.910Z,16.71
2023-04-01T14:01:41.979Z,16.46
2023-04-01T14:02:54.474Z,16.65
2023-04-01T14:04:31.754Z,16.70
2023-04-01T14:05:43.735Z,16.80
2023-04-01T14:06:59.927Z,16.56
2023-04-01T14:08:10.655Z,16.54
2023-04-01T14:09:50.949Z,16.62
2023-04-01T14:10:58.474Z,16.43
2023-04-01T14:12:14.767Z,16.52
2023-04-01T14:13:51.966Z,16.62
2023-04-01T14:15:12.438Z,16.60
2023-04-01T14:16:41.551Z,16.46
2023-04-01T14:18:07.822Z,16.69
2023-04-01T14:19:36.176Z,16.61
2023-04-01T14:20:41.854Z,16.75
2023-04-01T14:22:22.519Z,16.60
2023-04-01T14:24:00.129Z,16.53
2023-04-01T14:25:20.443Z,16.71
2023-04-01T14:26:22.460Z,16.78
2023-04-01T14:27:50.338Z,16.85
2023-04-01T14:29:03.455Z,16.64
2023-04-01T14:30:26.506Z,16.32
2023-04-01T14:31:56.641Z,16.51
2023-04-01T14:33:24.558Z,16.61
2023-04-01T14:34:36.137Z,16.66
2023-04-01T14:36:08.906Z,16.79
2023-04-01T14:37:40.723Z,16.86
2023-04-01T14:39:13.785Z,16.75
2023-04-01T14:40:25.609Z,16.53
2023-04-01T14:41:40.341Z,16.75
2023-04-01T14:43:05.728Z,16.76
2023-04-01T14:44:46.336Z,16.66
2023-04-01T14:46:21.388Z,16.48
2023-04-01T14:47:23.245Z,16.51
2023-04-01T14:48:49.619Z,16.91
2023-04-01T14:50:04.632Z,16.72
2023-04-01T14:51:28.849Z,16.78
2023-04-01T14:52:38.984Z,16.89
2023-04-01T14:53:52.631Z,17.04
2023-04-01T14:55:06.747Z,17.18
2023-04-01T14:56:09.486Z,16.99
2023-04-01T14:57:25.070Z,16.77
2023-04-01T14:58:45.195Z,16.81
2023-04-01T14:59:51.220Z,16.71
2023-04-01T15:01:01.987Z,16.70
2023-04-01T15:02:35.393Z,16.62
2023-04-01T15:03:47.830Z,16.52
2023-04-01T15:05:16.015Z,16.76
2023-04-01T15:06:36.056Z,16.57
2023-04-01T15:08:14.286Z,16.77
2023-04-01T15:09:41.008Z,16.80
2023-04-01T15:11:11.532Z,16.81
2023-04-01T15:12:13.368Z,16.33
2023-04-01T15:13:45.716Z,16.47
2023-04-01T15:15:06.344Z,16.56
2023-04-01T15:16:45.792Z,16.73
2023-04-01T15:18:04.965Z,16.91
2023-04-01T15:19:25.974Z,16.79
2023-04-01T15:20:30.660Z,16.85
2023-04-01T15:21:51.355Z,16.82
2023-04-01T15:23:01.876Z,16.99
2023-04-01T15:24:38.957Z,16.93
2023-04-01T15:25:47.149Z,16.65
2023-04-01T15:27:13.919Z,16.48
2023-04-01T15:28:56.350Z,16.26
2023-04-01T15:30:16.789Z,16.37
2023-04-01T15:31:35.575Z,16.35
2023-04-01T15:33:15.099Z,16.24
2023-04-01T15:34:49.552Z,16.26
2023-04-01T15:36:32.600Z,16.10
2023-04-01T15:37:37.633Z,15.98
2023-04-01T15:39:08.718Z,16.11
2023-04-01T15:40:19.029Z,15.86
2023-04-01T15:41:26.991Z,15.59
2023-04-01T15:42:54.783Z,15.56
2023-04-01T15:43:57.071Z,15.66
2023-04-01T15:45:36.075Z,15.67
2023-04-01T15:46:38.345Z,15.62
2023-04-01T15:47:53.947Z,15.58
2023-04-01T15:49:12.208Z,15.66
2023-04-01T15:50:34.694Z,15.63
2023-04-01T15:51:42.159Z,15.56
2023-04-01T15:52:48.895Z,15.52
2023-04-01T15:53:55.140Z,15.55
2023-04-01T15:55:21.132Z,15.46
2023-04-01T15:56:53.034Z,15.56
2023-04-01T15:58:16.768Z,15.53
2023-04-01T15:59:35.290Z,15.55
2023-04-01T16:01:16.125Z,15.58
2023-04-01T16:02:42.060Z,15.58
2023-04-01T16:04:05.085Z,15.55
2023-04-01T16:05:19.268Z,15.48
2023-04-01T16:06:40.822Z,15.43
2023-04-01T16:07:56.599Z,15.44
2023-04-01T16:09:38.082Z,15.45
2023-04-01T16:10:53.280Z,15.42
2023-04-01T16:12:19.265Z,15.41